createdAt,value
2023-03-04T00:01:07.334Z,99.90
2023-03-04T00:03:34.634Z,99.90
2023-03-04T00:06:01.767Z,99.90
2023-03-04T00:08:29.052Z,99.90
2023-03-04T00:10:56.355Z,99.90
2023-03-04T00:13:24.593Z,99.90
2023-03-04T00:15:51.956Z,99.90
2023-03-04T00:18:21.632Z,99.90
2023-03-04T00:20:49.794Z,99.90
2023-03-04T00:23:17.658Z,99.90
2023-03-04T00:25:44.992Z,99.90
2023-03-04T00:28:12.271Z,99.90
2023-03-04T00:30:39.401Z,99.90
2023-03-04T00:33:06.698Z,99.90
2023-03-04T00:35:33.892Z,99.90
2023-03-04T00:38:01.235Z,99.90
2023-03-04T00:40:28.753Z,99.90
2023-03-04T00:42:56.027Z,99.90
2023-03-04T00:45:23.188Z,99.90
2023-03-04T00:47:50.558Z,99.90
2023-03-04T00:50:17.910Z,99.90
2023-03-04T00:52:45.220Z,99.90
2023-03-04T00:55:12.627Z,99.90
2023-03-04T00:57:40.056Z,99.90
2023-03-04T01:00:07.961Z,99.90
2023-03-04T01:02:35.447Z,99.90
2023-03-04T01:05:02.803Z,99.90
2023-03-04T01:07:30.058Z,99.90
2023-03-04T01:09:57.462Z,99.90
2023-03-04T01:12:25.294Z,99.90
2023-03-04T01:14:52.429Z,99.90
2023-03-04T01:17:20.078Z,99.90
2023-03-04T01:19:48.789Z,99.90
2023-03-04T01:22:17.023Z,99.90
2023-03-04T01:24:44.198Z,99.90
2023-03-04T01:27:11.729Z,99.90
2023-03-04T01:29:38.928Z,99.90
2023-03-04T01:32:06.383Z,99.90
2023-03-04T01:34:33.671Z,99.90
2023-03-04T01:37:00.871Z,99.90
2023-03-04T01:39:28.150Z,99.90
2023-03-04T01:41:55.580Z,99.90
2023-03-04T01:44:22.841Z,99.90
2023-03-04T01:46:53.924Z,99.90
2023-03-04T01:49:21.854Z,99.90
2023-03-04T01:51:53.781Z,99.90
2023-03-04T01:54:23.091Z,99.90
2023-03-04T01:56:52.455Z,99.90
2023-03-04T01:59:21.311Z,99.90
2023-03-04T02:01:52.572Z,99.90
2023-03-04T02:04:23.547Z,99.90
2023-03-04T02:06:52.172Z,99.90
2023-03-04T02:09:20.232Z,99.90
2023-03-04T02:11:49.262Z,99.90
2023-03-04T02:14:17.491Z,99.90
2023-03-04T02:16:44.952Z,99.90
2023-03-04T02:19:16.652Z,99.90
2023-03-04T02:21:43.982Z,99.90
2023-03-04T02:24:17.452Z,99.90
2023-03-04T02:26:47.134Z,99.90
2023-03-04T02:29:17.418Z,99.90
2023-03-04T02:31:48.793Z,99.90
2023-03-04T02:34:20.060Z,99.90
2023-03-04T02:36:49.154Z,99.90
2023-03-04T02:39:19.815Z,99.90
2023-03-04T02:41:49.052Z,99.90
2023-03-04T02:44:21.925Z,99.90
2023-03-04T02:46:50.962Z,99.90
2023-03-04T02:49:19.299Z,99.90
2023-03-04T02:51:46.764Z,99.90
2023-03-04T02:54:17.225Z,99.90
2023-03-04T02:56:47.008Z,99.90
2023-03-04T02:59:15.436Z,99.90
2023-03-04T03:01:43.499Z,99.90
2023-03-04T03:04:11.846Z,99.90
2023-03-04T03:06:39.847Z,99.90
2023-03-04T03:09:07.445Z,99.90
2023-03-04T03:11:35.360Z,99.90
2023-03-04T03:14:04.478Z,99.90
2023-03-04T03:16:32.010Z,99.90
2023-03-04T03:18:59.236Z,99.90
2023-03-04T03:21:26.735Z,99.90
2023-03-04T03:23:53.944Z,99.90
2023-03-04T03:26:21.323Z,99.90
2023-03-04T03:28:48.593Z,99.90
2023-03-04T03:31:15.945Z,99.90
2023-03-04T03:33:47.394Z,99.90
2023-03-04T03:36:14.899Z,99.90
2023-03-04T03:38:42.073Z,99.90
2023-03-04T03:41:09.356Z,99.90
2023-03-04T03:43:36.661Z,99.90
2023-03-04T03:46:04.082Z,99.90
2023-03-04T03:48:31.201Z,99.90
2023-03-04T03:50:58.531Z,99.90
2023-03-04T03:53:25.792Z,99.90
2023-03-04T03:55:53.022Z,99.90
2023-03-04T03:58:20.260Z,99.90
2023-03-04T04:00:47.579Z,99.90
2023-03-04T04:03:16.110Z,99.90
2023-03-04T04:05:43.553Z,99.90
2023-03-04T04:08:14.504Z,99.90
2023-03-04T04:10:42.244Z,99.90
2023-03-04T04:13:10.019Z,99.90
2023-03-04T04:15:38.771Z,99.90
2023-03-04T04:18:06.998Z,99.90
2023-03-04T04:20:34.864Z,99.90
2023-03-04T04:23:02.823Z,99.90
2023-03-04T04:25:30.147Z,99.90
2023-03-04T04:27:57.400Z,99.90
2023-03-04T04:30:24.854Z,99.90
2023-03-04T04:32:52.313Z,99.90
2023-03-04T04:35:20.008Z,99.90
2023-03-04T04:37:47.190Z,99.90
2023-03-04T04:40:14.718Z,99.90
2023-03-04T04:42:41.979Z,99.90
2023-03-04T04:45:09.722Z,99.90
2023-03-04T04:47:36.930Z,99.90
2023-03-04T04:50:04.873Z,99.90
2023-03-04T04:52:32.270Z,99.90
2023-03-04T04:54:59.467Z,99.90
2023-03-04T04:57:26.685Z,99.90
2023-03-04T04:59:54.724Z,99.90
2023-03-04T05:02:21.962Z,99.90
2023-03-04T05:04:49.282Z,99.90
2023-03-04T05:07:16.502Z,99.90
2023-03-04T05:09:43.927Z,99.90
2023-03-04T05:12:11.176Z,99.90
2023-03-04T05:14:38.534Z,99.90
2023-03-04T05:17:05.736Z,99.90
2023-03-04T05:19:33.050Z,99.90
2023-03-04T05:22:00.265Z,99.90
2023-03-04T05:24:27.616Z,99.90
2023-03-04T05:26:54.845Z,99.90
2023-03-04T05:29:22.492Z,99.90
2023-03-04T05:31:49.723Z,99.90
2023-03-04T05:34:17.140Z,99.90
2023-03-04T05:36:44.388Z,99.90
2023-03-04T05:39:12.112Z,99.90
2023-03-04T05:41:39.300Z,99.90
2023-03-04T05:44:06.698Z,99.90
2023-03-04T05:46:34.081Z,99.90
2023-03-04T05:49:01.434Z,99.90
2023-03-04T05:51:28.727Z,99.90
2023-03-04T05:53:56.004Z,99.90
2023-03-04T05:56:23.154Z,99.90
2023-03-04T05:58:50.549Z,99.90
2023-03-04T06:01:18.222Z,99.90
2023-03-04T06:03:48.564Z,99.90
2023-03-04T06:06:16.170Z,99.90
2023-03-04T06:08:43.575Z,99.90
2023-03-04T06:11:10.798Z,99.90
2023-03-04T06:13:38.429Z,99.90
2023-03-04T06:16:05.942Z,99.90
2023-03-04T06:18:33.266Z,99.90
2023-03-04T06:21:03.207Z,99.90
2023-03-04T06:23:31.331Z,99.90
2023-03-04T06:26:00.020Z,99.90
2023-03-04T06:28:28.059Z,99.90
2023-03-04T06:30:56.994Z,99.90
2023-03-04T06:33:24.454Z,99.90
2023-03-04T06:35:55.813Z,99.90
2023-03-04T06:38:23.558Z,99.90
2023-03-04T06:40:50.737Z,99.90
2023-03-04T06:43:18.715Z,99.90
2023-03-04T06:45:46.006Z,99.90
2023-03-04T06:48:13.552Z,99.90
2023-03-04T06:50:41.559Z,99.90
2023-03-04T06:53:08.855Z,99.90
2023-03-04T06:55:36.050Z,99.90
2023-03-04T06:58:03.449Z,99.90
2023-03-04T07:00:30.683Z,99.90
2023-03-04T07:02:59.074Z,99.90
2023-03-04T07:05:26.742Z,99.90
2023-03-04T07:07:53.954Z,99.90
2023-03-04T07:10:21.416Z,99.90
2023-03-04T07:12:48.852Z,99.90
2023-03-04T07:15:15.988Z,99.90
2023-03-04T07:17:43.259Z,99.90
2023-03-04T07:20:11.248Z,99.90
2023-03-04T07:22:38.441Z,99.90
2023-03-04T07:25:06.500Z,99.90
2023-03-04T07:27:33.771Z,99.90
2023-03-04T07:30:00.933Z,99.90
2023-03-04T07:32:28.250Z,99.90
2023-03-04T07:34:55.487Z,99.90
2023-03-04T07:37:22.819Z,99.90
2023-03-04T07:39:49.929Z,99.90
2023-03-04T07:42:17.251Z,99.90
2023-03-04T07:44:53.330Z,99.90
2023-03-04T07:47:20.640Z,99.90
2023-03-04T07:49:47.792Z,99.90
2023-03-04T07:52:15.169Z,99.90
2023-03-04T07:54:42.361Z,99.90
2023-03-04T07:57:09.747Z,99.90
2023-03-04T07:59:37.081Z,99.90
2023-03-04T08:02:04.381Z,99.90
2023-03-04T08:04:31.586Z,99.90
2023-03-04T08:06:58.841Z,99.90
2023-03-04T08:09:26.179Z,99.90
2023-03-04T08:11:53.401Z,99.90
2023-03-04T08:14:20.578Z,99.90
2023-03-04T08:16:47.876Z,99.90
2023-03-04T08:19:15.018Z,99.90
2023-03-04T08:21:42.236Z,99.90
2023-03-04T08:24:11.512Z,99.90
2023-03-04T08:26:42.971Z,99.90
2023-03-04T08:29:14.060Z,99.90
2023-03-04T08:31:41.596Z,99.90
2023-03-04T08:34:10.662Z,99.90
2023-03-04T08:36:38.103Z,99.90
2023-03-04T08:39:05.886Z,99.90
2023-03-04T08:41:33.282Z,99.90
2023-03-04T08:44:01.705Z,99.90
2023-03-04T08:46:29.542Z,99.90
2023-03-04T08:48:57.152Z,99.90
2023-03-04T08:51:25.196Z,99.90
2023-03-04T08:53:52.938Z,99.90
2023-03-04T08:56:20.357Z,99.90
2023-03-04T08:58:47.646Z,99.90
2023-03-04T09:01:15.570Z,99.90
2023-03-04T09:03:43.231Z,99.90
2023-03-04T09:06:14.666Z,99.90
2023-03-04T09:08:42.082Z,99.90
2023-03-04T09:11:09.699Z,99.90
2023-03-04T09:13:37.449Z,99.90
2023-03-04T09:16:11.231Z,99.90
2023-03-04T09:18:39.824Z,99.90
2023-03-04T09:21:08.690Z,99.90
2023-03-04T09:23:36.883Z,99.90
2023-03-04T09:26:16.642Z,99.90
2023-03-04T09:28:44.057Z,99.90
2023-03-04T09:31:12.919Z,99.90
2023-03-04T09:33:43.188Z,99.90
2023-03-04T09:36:12.729Z,99.90
2023-03-04T09:38:41.427Z,99.90
2023-03-04T09:41:13.611Z,99.90
2023-03-04T09:43:41.458Z,99.90
2023-03-04T09:46:14.113Z,99.90
2023-03-04T09:48:57.027Z,99.90
2023-03-04T09:51:27.248Z,99.90
2023-03-04T09:54:15.469Z,99.90
2023-03-04T09:56:42.795Z,99.90
2023-03-04T09:59:15.355Z,99.90
2023-03-04T10:01:46.182Z,99.90
2023-03-04T10:04:17.346Z,99.90
2023-03-04T10:06:51.837Z,99.90
2023-03-04T10:09:26.396Z,99.90
2023-03-04T10:12:02.135Z,99.90
2023-03-04T10:14:48.226Z,99.90
2023-03-04T10:17:19.971Z,99.90
2023-03-04T10:19:57.334Z,99.90
2023-03-04T10:22:44.133Z,99.90
2023-03-04T10:25:18.994Z,99.90
2023-03-04T10:27:51.045Z,99.90
2023-03-04T10:30:27.080Z,99.90
2023-03-04T10:32:56.150Z,99.90
2023-03-04T10:35:31.438Z,99.90
2023-03-04T10:38:03.870Z,99.90
2023-03-04T10:40:38.944Z,99.90
2023-03-04T10:43:08.319Z,99.90
2023-03-04T10:45:39.282Z,99.90
2023-03-04T10:48:07.613Z,99.70
2023-03-04T10:50:34.872Z,99.90
2023-03-04T10:53:02.160Z,99.90
2023-03-04T10:55:42.370Z,99.90
2023-03-04T10:58:16.228Z,99.00
2023-03-04T11:00:43.531Z,98.70
2023-03-04T11:03:14.126Z,98.70
2023-03-04T11:05:41.346Z,99.10
2023-03-04T11:08:19.708Z,98.50
2023-03-04T11:10:50.052Z,98.90
2023-03-04T11:13:21.263Z,98.90
2023-03-04T11:15:55.555Z,97.60
2023-03-04T11:18:39.284Z,97.50
2023-03-04T11:21:08.198Z,97.10
2023-03-04T11:23:41.221Z,97.00
2023-03-04T11:26:16.594Z,97.70
2023-03-04T11:28:49.911Z,97.00
2023-03-04T11:31:23.282Z,97.40
2023-03-04T11:33:56.462Z,97.20
2023-03-04T11:36:45.112Z,96.70
2023-03-04T11:39:22.263Z,96.70
2023-03-04T11:41:55.178Z,96.90
2023-03-04T11:44:22.654Z,96.80
2023-03-04T11:46:51.786Z,96.50
2023-03-04T11:49:28.653Z,96.40
2023-03-04T11:52:28.817Z,97.20
2023-03-04T11:55:17.436Z,97.10
2023-03-04T11:57:55.269Z,96.80
2023-03-04T12:00:47.229Z,96.50
2023-03-04T12:03:26.078Z,96.90
2023-03-04T12:05:56.788Z,96.40
2023-03-04T12:08:39.423Z,96.40
2023-03-04T12:11:21.171Z,97.10
2023-03-04T12:14:00.930Z,96.40
2023-03-04T12:16:31.240Z,96.80
2023-03-04T12:19:10.418Z,96.80
2023-03-04T12:21:50.910Z,96.90
2023-03-04T12:24:39.234Z,96.40
2023-03-04T12:27:09.514Z,96.40
2023-03-04T12:29:39.669Z,96.80
2023-03-04T12:32:33.020Z,96.50
2023-03-04T12:35:10.167Z,96.10
2023-03-04T12:37:49.060Z,95.70
2023-03-04T12:40:25.498Z,95.90
2023-03-04T12:42:56.328Z,95.90
2023-03-04T12:45:28.510Z,96.00
2023-03-04T12:48:04.757Z,95.90
2023-03-04T12:50:43.163Z,96.00
2023-03-04T12:53:25.879Z,96.10
2023-03-04T12:55:55.526Z,96.30
2023-03-04T12:58:26.608Z,96.20
2023-03-04T13:01:01.800Z,96.10
2023-03-04T13:03:42.626Z,96.80
2023-03-04T13:06:23.908Z,95.60
2023-03-04T13:08:59.967Z,95.20
2023-03-04T13:11:42.425Z,96.50
2023-03-04T13:14:30.677Z,96.30
2023-03-04T13:17:01.985Z,96.40
2023-03-04T13:19:32.129Z,96.20
2023-03-04T13:21:59.525Z,96.20
2023-03-04T13:24:29.745Z,96.20
2023-03-04T13:26:57.014Z,95.80
2023-03-04T13:29:38.367Z,95.30
2023-03-04T13:32:11.595Z,95.50
2023-03-04T13:34:42.186Z,95.40
2023-03-04T13:37:12.507Z,96.20
2023-03-04T13:39:39.794Z,95.30
2023-03-04T13:42:28.475Z,95.60
2023-03-04T13:44:58.852Z,95.30
2023-03-04T13:47:33.580Z,95.30
2023-03-04T13:50:03.787Z,95.50
2023-03-04T13:52:34.206Z,95.40
2023-03-04T13:55:04.523Z,95.40
2023-03-04T13:57:31.724Z,95.60
2023-03-04T13:59:59.414Z,95.10
2023-03-04T14:02:27.353Z,95.20
2023-03-04T14:05:00.527Z,94.70
2023-03-04T14:07:31.064Z,94.30
2023-03-04T14:10:05.289Z,95.40
2023-03-04T14:12:35.825Z,94.60
2023-03-04T14:15:21.149Z,94.80
2023-03-04T14:17:53.064Z,94.90
2023-03-04T14:20:24.684Z,95.10
2023-03-04T14:22:52.298Z,95.10
2023-03-04T14:25:24.436Z,95.00
2023-03-04T14:28:04.435Z,94.80
2023-03-04T14:30:42.319Z,94.40
2023-03-04T14:33:17.814Z,95.10
2023-03-04T14:35:48.984Z,94.80
2023-03-04T14:38:23.316Z,94.40
2023-03-04T14:40:56.014Z,94.40
2023-03-04T14:43:24.148Z,94.20
2023-03-04T14:45:54.619Z,94.50
2023-03-04T14:48:32.241Z,94.50
2023-03-04T14:51:02.238Z,95.00
2023-03-04T14:53:32.448Z,95.30
2023-03-04T14:56:07.192Z,94.80
2023-03-04T14:58:37.680Z,94.80
2023-03-04T15:01:08.442Z,94.40
2023-03-04T15:03:36.202Z,94.00
2023-03-04T15:06:06.610Z,94.40
2023-03-04T15:08:38.718Z,95.70
2023-03-04T15:11:07.753Z,95.10
2023-03-04T15:13:38.532Z,95.40
2023-03-04T15:16:10.475Z,95.40
2023-03-04T15:18:37.810Z,95.20
2023-03-04T15:21:08.863Z,95.50
2023-03-04T15:23:36.152Z,94.90
2023-03-04T15:26:06.020Z,94.80
2023-03-04T15:28:37.029Z,94.90
2023-03-04T15:31:06.205Z,95.20
2023-03-04T15:33:34.257Z,95.60
2023-03-04T15:36:03.218Z,95.20
2023-03-04T15:38:30.619Z,95.30
2023-03-04T15:40:59.863Z,95.20
2023-03-04T15:43:27.386Z,94.70
2023-03-04T15:45:54.895Z,95.50
2023-03-04T15:48:22.374Z,95.40
2023-03-04T15:50:52.091Z,95.90
2023-03-04T15:53:22.665Z,96.20
2023-03-04T15:55:50.112Z,96.20
2023-03-04T15:58:17.908Z,96.70
2023-03-04T16:00:45.237Z,96.70
2023-03-04T16:03:16.584Z,96.30
2023-03-04T16:05:45.529Z,97.10
2023-03-04T16:08:16.788Z,96.40
2023-03-04T16:10:45.538Z,96.60
2023-03-04T16:13:16.350Z,96.50
2023-03-04T16:15:43.902Z,96.80
2023-03-04T16:18:12.649Z,96.70
2023-03-04T16:20:43.421Z,97.10
2023-03-04T16:23:14.698Z,97.50
2023-03-04T16:25:45.183Z,97.50
2023-03-04T16:28:13.564Z,98.00
2023-03-04T16:30:41.764Z,97.60
2023-03-04T16:33:11.521Z,97.60
2023-03-04T16:35:40.027Z,98.20
2023-03-04T16:38:20.379Z,98.40
2023-03-04T16:40:47.821Z,98.40
2023-03-04T16:43:15.062Z,98.30
2023-03-04T16:45:42.563Z,98.60
2023-03-04T16:48:10.228Z,98.20
2023-03-04T16:50:38.729Z,98.00
2023-03-04T16:53:11.219Z,98.50
2023-03-04T16:55:38.411Z,98.50
2023-03-04T16:58:08.265Z,98.80
2023-03-04T17:00:35.728Z,98.90
2023-03-04T17:03:03.966Z,98.80
2023-03-04T17:05:33.726Z,99.20
2023-03-04T17:08:00.999Z,99.60
2023-03-04T17:10:28.378Z,99.90
2023-03-04T17:12:55.540Z,99.90
2023-03-04T17:15:22.894Z,99.90
2023-03-04T17:17:52.273Z,99.90
2023-03-04T17:20:19.867Z,99.90
2023-03-04T17:22:47.242Z,99.90
2023-03-04T17:25:15.669Z,99.90
2023-03-04T17:27:43.202Z,99.90
2023-03-04T17:30:12.637Z,99.90
2023-03-04T17:32:40.587Z,99.90
2023-03-04T17:35:09.227Z,99.90
2023-03-04T17:37:37.747Z,99.90
2023-03-04T17:40:07.080Z,99.90
2023-03-04T17:42:34.828Z,99.90
2023-03-04T17:45:02.081Z,99.90
2023-03-04T17:47:29.255Z,99.90
2023-03-04T17:49:56.616Z,99.90
2023-03-04T17:52:23.807Z,99.90
2023-03-04T17:54:51.002Z,99.90
2023-03-04T17:57:18.157Z,99.90
2023-03-04T17:59:45.530Z,99.90
2023-03-04T18:02:16.043Z,99.90
2023-03-04T18:04:46.436Z,99.90
2023-03-04T18:07:13.593Z,99.90
2023-03-04T18:09:40.893Z,99.90
2023-03-04T18:12:08.452Z,99.90
2023-03-04T18:14:35.728Z,99.90
2023-03-04T18:17:03.026Z,99.90
2023-03-04T18:19:30.375Z,99.90
2023-03-04T18:21:57.549Z,99.90
2023-03-04T18:24:24.717Z,99.90
2023-03-04T18:26:52.438Z,99.90
2023-03-04T18:29:19.718Z,99.90
2023-03-04T18:31:46.954Z,99.90
2023-03-04T18:34:14.319Z,99.90
2023-03-04T18:36:41.411Z,99.90
2023-03-04T18:39:09.433Z,99.90
2023-03-04T18:41:36.718Z,99.90
2023-03-04T18:44:05.079Z,99.90
2023-03-04T18:46:40.573Z,99.90
2023-03-04T18:49:09.020Z,99.90
2023-03-04T18:51:36.227Z,99.90
2023-03-04T18:54:03.805Z,99.90
2023-03-04T18:56:38.628Z,99.90
2023-03-04T18:59:11.862Z,99.90
2023-03-04T19:01:39.213Z,99.90
2023-03-04T19:04:06.898Z,99.90
2023-03-04T19:06:34.763Z,99.90
2023-03-04T19:09:02.193Z,99.90
2023-03-04T19:11:31.635Z,99.90
2023-03-04T19:13:58.983Z,99.90
2023-03-04T19:16:26.387Z,99.90
2023-03-04T19:18:53.752Z,99.90
2023-03-04T19:21:21.081Z,99.90
2023-03-04T19:23:48.224Z,99.90
2023-03-04T19:26:15.593Z,99.90
2023-03-04T19:28:43.152Z,99.90
2023-03-04T19:31:11.715Z,99.90
2023-03-04T19:33:40.085Z,99.90
2023-03-04T19:36:08.625Z,99.90
2023-03-04T19:38:36.133Z,99.90
2023-03-04T19:41:12.221Z,99.90
2023-03-04T19:43:39.650Z,99.90
2023-03-04T19:46:08.712Z,99.90
2023-03-04T19:48:37.697Z,99.90
2023-03-04T19:51:14.736Z,99.90
2023-03-04T19:53:42.472Z,99.90
2023-03-04T19:56:10.323Z,99.90
2023-03-04T19:58:37.675Z,99.90
2023-03-04T20:01:05.242Z,99.90
2023-03-04T20:03:32.856Z,99.90
2023-03-04T20:06:02.690Z,99.90
2023-03-04T20:08:30.033Z,99.90
2023-03-04T20:10:57.221Z,99.90
2023-03-04T20:13:24.449Z,99.90
2023-03-04T20:15:51.955Z,99.90
2023-03-04T20:18:19.180Z,99.90
2023-03-04T20:20:46.318Z,99.90
2023-03-04T20:23:13.653Z,99.90
2023-03-04T20:25:40.838Z,99.90
2023-03-04T20:28:08.060Z,99.90
2023-03-04T20:30:35.287Z,99.90
2023-03-04T20:33:02.538Z,99.90
2023-03-04T20:35:29.777Z,99.90
2023-03-04T20:37:57.137Z,99.90
2023-03-04T20:40:24.246Z,99.90
2023-03-04T20:42:51.454Z,99.90
2023-03-04T20:45:20.355Z,99.90
2023-03-04T20:47:50.009Z,99.90
2023-03-04T20:50:17.909Z,99.90
2023-03-04T20:52:46.207Z,99.90
2023-03-04T20:55:13.598Z,99.90
2023-03-04T20:57:41.355Z,99.90
2023-03-04T21:00:09.408Z,99.90
2023-03-04T21:02:36.843Z,99.90
2023-03-04T21:05:04.575Z,99.90
2023-03-04T21:07:31.959Z,99.90
2023-03-04T21:09:59.297Z,99.90
2023-03-04T21:12:26.889Z,99.90
2023-03-04T21:14:54.212Z,99.90
2023-03-04T21:17:21.820Z,99.90
2023-03-04T21:19:49.148Z,99.90
2023-03-04T21:22:19.065Z,99.90
2023-03-04T21:24:48.206Z,99.90
2023-03-04T21:27:17.086Z,99.90
2023-03-04T21:29:44.771Z,99.90
2023-03-04T21:32:24.217Z,99.90
2023-03-04T21:34:53.305Z,99.90
2023-03-04T21:37:22.096Z,99.90
2023-03-04T21:39:49.596Z,99.90
2023-03-04T21:42:17.192Z,99.90
2023-03-04T21:44:49.608Z,99.90
2023-03-04T21:47:18.147Z,99.90
2023-03-04T21:49:45.773Z,99.90
2023-03-04T21:52:13.297Z,99.90
2023-03-04T21:54:40.712Z,99.90
2023-03-04T21:57:08.275Z,99.90
2023-03-04T21:59:35.728Z,99.90
2023-03-04T22:02:03.169Z,99.90
2023-03-04T22:04:30.653Z,99.90
2023-03-04T22:06:58.021Z,99.90
2023-03-04T22:09:25.552Z,99.90
2023-03-04T22:11:53.054Z,99.90
2023-03-04T22:14:20.405Z,99.90
2023-03-04T22:16:55.208Z,99.90
2023-03-04T22:19:25.593Z,99.90
2023-03-04T22:21:53.211Z,99.90
2023-03-04T22:24:20.726Z,99.90
2023-03-04T22:26:48.358Z,99.90
2023-03-04T22:29:15.815Z,99.90
2023-03-04T22:31:43.223Z,99.90
2023-03-04T22:34:13.943Z,99.90
2023-03-04T22:36:44.499Z,99.90
2023-03-04T22:39:15.635Z,99.90
2023-03-04T22:41:42.989Z,99.90
2023-03-04T22:44:10.347Z,99.90
2023-03-04T22:46:39.389Z,99.90
2023-03-04T22:49:10.327Z,99.90
2023-03-04T22:51:38.734Z,99.90
2023-03-04T22:54:06.156Z,99.90
2023-03-04T22:56:34.257Z,99.90
2023-03-04T22:59:01.564Z,99.90
2023-03-04T23:01:29.166Z,99.90
2023-03-04T23:03:56.557Z,99.90
2023-03-04T23:06:27.824Z,99.90
2023-03-04T23:08:57.423Z,99.90
2023-03-04T23:11:28.746Z,99.90
2023-03-04T23:13:56.952Z,99.90
2023-03-04T23:16:28.049Z,99.90
2023-03-04T23:18:57.125Z,99.90
2023-03-04T23:21:28.352Z,99.90
2023-03-04T23:23:56.160Z,99.90
2023-03-04T23:26:27.146Z,99.90
2023-03-04T23:28:57.286Z,99.90
2023-03-04T23:31:25.898Z,99.90
2023-03-04T23:33:57.575Z,99.90
2023-03-04T23:36:28.403Z,99.90
2023-03-04T23:38:57.067Z,99.90
2023-03-04T23:41:27.315Z,99.90
2023-03-04T23:43:57.504Z,99.90
2023-03-04T23:46:25.948Z,99.90
2023-03-04T23:48:54.152Z,99.90
2023-03-04T23:51:24.383Z,99.90
2023-03-04T23:53:52.166Z,99.90
2023-03-04T23:56:24.292Z,99.90
2023-03-04T23:58:52.387Z,99.90
